sensor_id;sensor_type;location;lat;lon;timestamp;temperature;humidity
59309;DHT22;48433;53.016;-2.260;2022-11-20T00:01:30;7.10;99.90
59309;DHT22;48433;53.016;-2.260;2022-11-20T00:03:58;7.10;99.90
59309;DHT22;48433;53.016;-2.260;2022-11-20T00:06:27;7.10;99.90
59309;DHT22;48433;53.016;-2.260;2022-11-20T00:08:57;7.10;99.90
59309;DHT22;48433;53.016;-2.260;2022-11-20T00:11:26;7.10;99.90
59309;DHT22;48433;53.016;-2.260;2022-11-20T00:13:56;7.10;99.90
59309;DHT22;48433;53.016;-2.260;2022-11-20T00:16:28;7.10;99.90
59309;DHT22;48433;53.016;-2.260;2022-11-20T00:18:57;7.10;99.90
59309;DHT22;48433;53.016;-2.260;2022-11-20T00:21:28;7.10;99.90
59309;DHT22;48433;53.016;-2.260;2022-11-20T00:23:56;7.10;99.90
59309;DHT22;48433;53.016;-2.260;2022-11-20T00:26:26;7.10;99.90
59309;DHT22;48433;53.016;-2.260;2022-11-20T00:28:59;7.00;99.90
59309;DHT22;48433;53.016;-2.260;2022-11-20T00:31:28;6.90;99.90
59309;DHT22;48433;53.016;-2.260;2022-11-20T00:33:56;6.90;99.90
59309;DHT22;48433;53.016;-2.260;2022-11-20T00:36:26;6.90;99.90
59309;DHT22;48433;53.016;-2.260;2022-11-20T00:38:56;6.90;99.90
59309;DHT22;48433;53.016;-2.260;2022-11-20T00:41:24;6.90;99.90
59309;DHT22;48433;53.016;-2.260;2022-11-20T00:43:54;6.90;99.90
59309;DHT22;48433;53.016;-2.260;2022-11-20T00:46:24;6.80;99.90
59309;DHT22;48433;53.016;-2.260;2022-11-20T00:48:52;6.80;99.90
59309;DHT22;48433;53.016;-2.260;2022-11-20T00:51:21;6.80;99.90
59309;DHT22;48433;53.016;-2.260;2022-11-20T00:53:49;6.80;99.90
59309;DHT22;48433;53.016;-2.260;2022-11-20T00:56:18;6.80;99.90
59309;DHT22;48433;53.016;-2.260;2022-11-20T00:58:47;6.70;99.90
59309;DHT22;48433;53.016;-2.260;2022-11-20T01:01:18;6.70;99.90
59309;DHT22;48433;53.016;-2.260;2022-11-20T01:03:48;6.70;99.90
59309;DHT22;48433;53.016;-2.260;2022-11-20T01:06:18;6.70;99.90
59309;DHT22;48433;53.016;-2.260;2022-11-20T01:08:47;6.70;99.90
59309;DHT22;48433;53.016;-2.260;2022-11-20T01:11:20;6.60;99.90
59309;DHT22;48433;53.016;-2.260;2022-11-20T01:13:49;6.60;99.90
59309;DHT22;48433;53.016;-2.260;2022-11-20T01:16:37;6.60;99.90
59309;DHT22;48433;53.016;-2.260;2022-11-20T01:19:10;6.60;99.90
59309;DHT22;48433;53.016;-2.260;2022-11-20T01:21:45;6.60;99.90
59309;DHT22;48433;53.016;-2.260;2022-11-20T01:24:15;6.50;99.90
59309;DHT22;48433;53.016;-2.260;2022-11-20T01:26:45;6.60;99.90
59309;DHT22;48433;53.016;-2.260;2022-11-20T01:29:17;6.60;99.90
59309;DHT22;48433;53.016;-2.260;2022-11-20T01:31:46;6.60;99.90
59309;DHT22;48433;53.016;-2.260;2022-11-20T01:34:16;6.60;99.90
59309;DHT22;48433;53.016;-2.260;2022-11-20T01:36:44;6.50;99.90
59309;DHT22;48433;53.016;-2.260;2022-11-20T01:39:18;6.60;99.90
59309;DHT22;48433;53.016;-2.260;2022-11-20T01:41:47;6.60;99.90
59309;DHT22;48433;53.016;-2.260;2022-11-20T01:47:35;6.60;99.90
59309;DHT22;48433;53.016;-2.260;2022-11-20T01:50:25;6.60;99.90
59309;DHT22;48433;53.016;-2.260;2022-11-20T01:53:05;6.60;99.90
59309;DHT22;48433;53.016;-2.260;2022-11-20T01:55:40;6.60;99.90
59309;DHT22;48433;53.016;-2.260;2022-11-20T01:58:08;6.60;99.90
59309;DHT22;48433;53.016;-2.260;2022-11-20T02:00:36;6.60;99.90
59309;DHT22;48433;53.016;-2.260;2022-11-20T02:03:07;6.60;99.90
59309;DHT22;48433;53.016;-2.260;2022-11-20T02:05:43;6.60;99.90
59309;DHT22;48433;53.016;-2.260;2022-11-20T02:08:12;6.60;99.90
59309;DHT22;48433;53.016;-2.260;2022-11-20T02:10:40;6.60;99.90
59309;DHT22;48433;53.016;-2.260;2022-11-20T02:13:08;6.60;99.90
59309;DHT22;48433;53.016;-2.260;2022-11-20T02:15:55;6.60;99.90
59309;DHT22;48433;53.016;-2.260;2022-11-20T02:18:23;6.60;99.90
59309;DHT22;48433;53.016;-2.260;2022-11-20T02:20:55;6.60;99.90
59309;DHT22;48433;53.016;-2.260;2022-11-20T02:23:39;6.50;99.90
59309;DHT22;48433;53.016;-2.260;2022-11-20T02:26:12;6.50;99.90
59309;DHT22;48433;53.016;-2.260;2022-11-20T02:28:41;6.50;99.90
59309;DHT22;48433;53.016;-2.260;2022-11-20T02:31:09;6.50;99.90
59309;DHT22;48433;53.016;-2.260;2022-11-20T02:33:36;6.50;99.90
59309;DHT22;48433;53.016;-2.260;2022-11-20T02:36:04;6.50;99.90
59309;DHT22;48433;53.016;-2.260;2022-11-20T02:38:32;6.50;99.90
59309;DHT22;48433;53.016;-2.260;2022-11-20T02:40:59;6.50;99.90
59309;DHT22;48433;53.016;-2.260;2022-11-20T02:43:27;6.50;99.90
59309;DHT22;48433;53.016;-2.260;2022-11-20T02:45:54;6.50;99.90
59309;DHT22;48433;53.016;-2.260;2022-11-20T02:48:22;6.50;99.90
59309;DHT22;48433;53.016;-2.260;2022-11-20T02:50:51;6.40;99.90
59309;DHT22;48433;53.016;-2.260;2022-11-20T02:53:19;6.50;99.90
59309;DHT22;48433;53.016;-2.260;2022-11-20T02:55:46;6.50;99.90
59309;DHT22;48433;53.016;-2.260;2022-11-20T02:58:14;6.50;99.90
59309;DHT22;48433;53.016;-2.260;2022-11-20T03:00:42;6.50;99.90
59309;DHT22;48433;53.016;-2.260;2022-11-20T03:03:09;6.50;99.90
59309;DHT22;48433;53.016;-2.260;2022-11-20T03:05:37;6.50;99.90
59309;DHT22;48433;53.016;-2.260;2022-11-20T03:08:04;6.50;99.90
59309;DHT22;48433;53.016;-2.260;2022-11-20T03:10:32;6.50;99.90
59309;DHT22;48433;53.016;-2.260;2022-11-20T03:12:59;6.50;99.90
59309;DHT22;48433;53.016;-2.260;2022-11-20T03:15:30;6.60;99.90
59309;DHT22;48433;53.016;-2.260;2022-11-20T03:17:57;6.60;99.90
59309;DHT22;48433;53.016;-2.260;2022-11-20T03:20:25;6.60;99.90
59309;DHT22;48433;53.016;-2.260;2022-11-20T03:22:54;6.60;99.90
59309;DHT22;48433;53.016;-2.260;2022-11-20T03:25:22;6.60;99.90
59309;DHT22;48433;53.016;-2.260;2022-11-20T03:27:49;6.60;99.90
59309;DHT22;48433;53.016;-2.260;2022-11-20T03:30:17;6.60;99.90
59309;DHT22;48433;53.016;-2.260;2022-11-20T03:32:45;6.60;99.90
59309;DHT22;48433;53.016;-2.260;2022-11-20T03:35:13;6.60;99.90
59309;DHT22;48433;53.016;-2.260;2022-11-20T03:37:41;6.60;99.90
59309;DHT22;48433;53.016;-2.260;2022-11-20T03:40:09;6.60;99.90
59309;DHT22;48433;53.016;-2.260;2022-11-20T03:42:36;6.60;99.90
59309;DHT22;48433;53.016;-2.260;2022-11-20T03:45:15;6.70;99.90
59309;DHT22;48433;53.016;-2.260;2022-11-20T03:47:44;6.70;99.90
59309;DHT22;48433;53.016;-2.260;2022-11-20T03:50:13;6.70;99.90
59309;DHT22;48433;53.016;-2.260;2022-11-20T03:53:16;6.70;99.90
59309;DHT22;48433;53.016;-2.260;2022-11-20T03:55:44;6.70;99.90
59309;DHT22;48433;53.016;-2.260;2022-11-20T03:58:12;6.70;99.90
59309;DHT22;48433;53.016;-2.260;2022-11-20T04:00:40;6.70;99.90
59309;DHT22;48433;53.016;-2.260;2022-11-20T04:03:08;6.70;99.90
59309;DHT22;48433;53.016;-2.260;2022-11-20T04:05:35;6.70;99.90
59309;DHT22;48433;53.016;-2.260;2022-11-20T04:08:03;6.70;99.90
59309;DHT22;48433;53.016;-2.260;2022-11-20T04:10:31;6.80;99.90
59309;DHT22;48433;53.016;-2.260;2022-11-20T04:12:58;6.70;99.90
59309;DHT22;48433;53.016;-2.260;2022-11-20T04:15:26;6.80;99.90
59309;DHT22;48433;53.016;-2.260;2022-11-20T04:17:54;6.80;99.90
59309;DHT22;48433;53.016;-2.260;2022-11-20T04:20:22;6.90;99.90
59309;DHT22;48433;53.016;-2.260;2022-11-20T04:22:52;6.80;99.90
59309;DHT22;48433;53.016;-2.260;2022-11-20T04:25:20;6.80;99.90
59309;DHT22;48433;53.016;-2.260;2022-11-20T04:27:47;6.80;99.90
59309;DHT22;48433;53.016;-2.260;2022-11-20T04:30:15;6.90;99.90
59309;DHT22;48433;53.016;-2.260;2022-11-20T04:32:42;6.90;99.90
59309;DHT22;48433;53.016;-2.260;2022-11-20T04:35:10;6.90;99.90
59309;DHT22;48433;53.016;-2.260;2022-11-20T04:37:37;7.00;99.90
59309;DHT22;48433;53.016;-2.260;2022-11-20T04:40:05;7.00;99.90
59309;DHT22;48433;53.016;-2.260;2022-11-20T04:42:33;7.00;99.90
59309;DHT22;48433;53.016;-2.260;2022-11-20T04:45:00;7.10;99.90
59309;DHT22;48433;53.016;-2.260;2022-11-20T04:47:29;7.10;99.90
59309;DHT22;48433;53.016;-2.260;2022-11-20T04:49:57;7.10;99.90
59309;DHT22;48433;53.016;-2.260;2022-11-20T04:52:24;7.10;99.90
59309;DHT22;48433;53.016;-2.260;2022-11-20T04:54:52;7.20;99.90
59309;DHT22;48433;53.016;-2.260;2022-11-20T04:57:20;7.20;99.90
59309;DHT22;48433;53.016;-2.260;2022-11-20T04:59:48;7.20;99.90
59309;DHT22;48433;53.016;-2.260;2022-11-20T05:02:15;7.20;99.90
59309;DHT22;48433;53.016;-2.260;2022-11-20T05:04:43;7.20;99.90
59309;DHT22;48433;53.016;-2.260;2022-11-20T05:07:11;7.20;99.90
59309;DHT22;48433;53.016;-2.260;2022-11-20T05:09:38;7.30;99.90
59309;DHT22;48433;53.016;-2.260;2022-11-20T05:12:08;7.30;99.90
59309;DHT22;48433;53.016;-2.260;2022-11-20T05:14:35;7.30;99.90
59309;DHT22;48433;53.016;-2.260;2022-11-20T05:17:03;7.30;99.90
59309;DHT22;48433;53.016;-2.260;2022-11-20T05:19:31;7.40;99.90
59309;DHT22;48433;53.016;-2.260;2022-11-20T05:21:58;7.40;99.90
59309;DHT22;48433;53.016;-2.260;2022-11-20T05:24:26;7.40;99.90
59309;DHT22;48433;53.016;-2.260;2022-11-20T05:26:53;7.40;99.90
59309;DHT22;48433;53.016;-2.260;2022-11-20T05:29:21;7.40;99.90
59309;DHT22;48433;53.016;-2.260;2022-11-20T05:31:49;7.40;99.90
59309;DHT22;48433;53.016;-2.260;2022-11-20T05:34:16;7.40;99.90
59309;DHT22;48433;53.016;-2.260;2022-11-20T05:36:44;7.40;99.90
59309;DHT22;48433;53.016;-2.260;2022-11-20T05:39:12;7.30;99.90
59309;DHT22;48433;53.016;-2.260;2022-11-20T05:41:39;7.20;99.90
59309;DHT22;48433;53.016;-2.260;2022-11-20T05:44:09;7.20;99.90
59309;DHT22;48433;53.016;-2.260;2022-11-20T05:46:37;7.00;99.90
59309;DHT22;48433;53.016;-2.260;2022-11-20T05:49:05;6.90;99.90
59309;DHT22;48433;53.016;-2.260;2022-11-20T05:51:32;6.70;99.90
59309;DHT22;48433;53.016;-2.260;2022-11-20T05:54:00;6.60;99.90
59309;DHT22;48433;53.016;-2.260;2022-11-20T05:56:27;6.60;99.90
59309;DHT22;48433;53.016;-2.260;2022-11-20T05:58:55;6.50;99.90
59309;DHT22;48433;53.016;-2.260;2022-11-20T06:01:25;6.40;99.90
59309;DHT22;48433;53.016;-2.260;2022-11-20T06:03:53;6.40;99.90
59309;DHT22;48433;53.016;-2.260;2022-11-20T06:06:21;6.30;99.90
59309;DHT22;48433;53.016;-2.260;2022-11-20T06:08:49;6.30;99.90
59309;DHT22;48433;53.016;-2.260;2022-11-20T06:11:17;6.30;99.90
59309;DHT22;48433;53.016;-2.260;2022-11-20T06:13:46;6.20;99.90
59309;DHT22;48433;53.016;-2.260;2022-11-20T06:16:16;6.20;99.90
59309;DHT22;48433;53.016;-2.260;2022-11-20T06:18:44;6.20;99.90
59309;DHT22;48433;53.016;-2.260;2022-11-20T06:21:21;6.10;99.90
59309;DHT22;48433;53.016;-2.260;2022-11-20T06:23:51;6.10;99.90
59309;DHT22;48433;53.016;-2.260;2022-11-20T06:26:21;6.10;99.90
59309;DHT22;48433;53.016;-2.260;2022-11-20T06:28:50;6.00;99.90
59309;DHT22;48433;53.016;-2.260;2022-11-20T06:31:21;6.00;99.90
59309;DHT22;48433;53.016;-2.260;2022-11-20T06:33:49;6.00;99.90
59309;DHT22;48433;53.016;-2.260;2022-11-20T06:36:19;5.90;99.90
59309;DHT22;48433;53.016;-2.260;2022-11-20T06:38:46;5.90;99.90
59309;DHT22;48433;53.016;-2.260;2022-11-20T06:41:17;5.90;99.90
59309;DHT22;48433;53.016;-2.260;2022-11-20T06:43:45;5.80;99.90
59309;DHT22;48433;53.016;-2.260;2022-11-20T06:46:14;5.80;99.90
59309;DHT22;48433;53.016;-2.260;2022-11-20T06:48:42;5.80;99.90
59309;DHT22;48433;53.016;-2.260;2022-11-20T06:51:09;5.80;99.90
59309;DHT22;48433;53.016;-2.260;2022-11-20T06:53:37;5.80;99.90
59309;DHT22;48433;53.016;-2.260;2022-11-20T06:56:06;5.80;99.90
59309;DHT22;48433;53.016;-2.260;2022-11-20T06:58:35;5.80;99.90
59309;DHT22;48433;53.016;-2.260;2022-11-20T07:01:06;5.80;99.90
59309;DHT22;48433;53.016;-2.260;2022-11-20T07:03:35;5.80;99.90
59309;DHT22;48433;53.016;-2.260;2022-11-20T07:06:03;5.90;99.90
59309;DHT22;48433;53.016;-2.260;2022-11-20T07:08:32;5.90;99.90
59309;DHT22;48433;53.016;-2.260;2022-11-20T07:11:02;5.90;99.90
59309;DHT22;48433;53.016;-2.260;2022-11-20T07:13:31;5.90;99.90
59309;DHT22;48433;53.016;-2.260;2022-11-20T07:16:01;5.90;99.90
59309;DHT22;48433;53.016;-2.260;2022-11-20T07:18:29;5.90;99.90
59309;DHT22;48433;53.016;-2.260;2022-11-20T07:21:00;5.90;99.90
59309;DHT22;48433;53.016;-2.260;2022-11-20T07:23:28;5.90;99.90
59309;DHT22;48433;53.016;-2.260;2022-11-20T07:25:56;5.90;99.90
59309;DHT22;48433;53.016;-2.260;2022-11-20T07:28:24;5.90;99.90
59309;DHT22;48433;53.016;-2.260;2022-11-20T07:30:53;5.90;99.90
59309;DHT22;48433;53.016;-2.260;2022-11-20T07:33:20;5.90;99.90
59309;DHT22;48433;53.016;-2.260;2022-11-20T07:35:48;6.00;99.90
59309;DHT22;48433;53.016;-2.260;2022-11-20T07:38:16;6.00;99.90
59309;DHT22;48433;53.016;-2.260;2022-11-20T07:40:43;6.00;99.90
59309;DHT22;48433;53.016;-2.260;2022-11-20T07:43:11;6.00;99.90
59309;DHT22;48433;53.016;-2.260;2022-11-20T07:45:38;6.00;99.90
59309;DHT22;48433;53.016;-2.260;2022-11-20T07:48:06;6.00;99.90
59309;DHT22;48433;53.016;-2.260;2022-11-20T07:50:34;6.00;99.90
59309;DHT22;48433;53.016;-2.260;2022-11-20T07:53:05;6.00;99.90
59309;DHT22;48433;53.016;-2.260;2022-11-20T07:55:33;5.90;99.90
59309;DHT22;48433;53.016;-2.260;2022-11-20T07:58:00;5.90;99.90
59309;DHT22;48433;53.016;-2.260;2022-11-20T08:00:28;5.90;99.90
59309;DHT22;48433;53.016;-2.260;2022-11-20T08:02:56;5.80;99.90
59309;DHT22;48433;53.016;-2.260;2022-11-20T08:05:23;5.80;99.90
59309;DHT22;48433;53.016;-2.260;2022-11-20T08:07:51;5.90;99.90
59309;DHT22;48433;53.016;-2.260;2022-11-20T08:10:18;5.90;99.90
59309;DHT22;48433;53.016;-2.260;2022-11-20T08:12:47;5.90;99.90
59309;DHT22;48433;53.016;-2.260;2022-11-20T08:15:35;5.90;99.90
59309;DHT22;48433;53.016;-2.260;2022-11-20T08:18:10;5.90;99.90
59309;DHT22;48433;53.016;-2.260;2022-11-20T08:21:02;5.90;99.90
59309;DHT22;48433;53.016;-2.260;2022-11-20T08:23:31;5.90;99.90
59309;DHT22;48433;53.016;-2.260;2022-11-20T08:25:59;5.90;99.90
59309;DHT22;48433;53.016;-2.260;2022-11-20T08:28:26;6.00;99.90
59309;DHT22;48433;53.016;-2.260;2022-11-20T08:30:59;6.00;99.90
59309;DHT22;48433;53.016;-2.260;2022-11-20T08:33:27;6.00;99.90
59309;DHT22;48433;53.016;-2.260;2022-11-20T08:35:59;6.10;99.90
59309;DHT22;48433;53.016;-2.260;2022-11-20T08:38:27;6.10;99.90
59309;DHT22;48433;53.016;-2.260;2022-11-20T08:41:03;6.10;99.90
59309;DHT22;48433;53.016;-2.260;2022-11-20T08:43:56;6.10;99.90
59309;DHT22;48433;53.016;-2.260;2022-11-20T08:46:28;6.10;99.90
59309;DHT22;48433;53.016;-2.260;2022-11-20T08:48:58;6.10;99.90
59309;DHT22;48433;53.016;-2.260;2022-11-20T08:51:26;6.20;99.90
59309;DHT22;48433;53.016;-2.260;2022-11-20T08:53:53;6.20;99.90
59309;DHT22;48433;53.016;-2.260;2022-11-20T08:56:21;6.40;99.90
59309;DHT22;48433;53.016;-2.260;2022-11-20T08:58:50;6.40;99.90
59309;DHT22;48433;53.016;-2.260;2022-11-20T09:01:38;6.60;99.90
59309;DHT22;48433;53.016;-2.260;2022-11-20T09:04:06;6.70;99.90
59309;DHT22;48433;53.016;-2.260;2022-11-20T09:06:34;6.80;99.90
59309;DHT22;48433;53.016;-2.260;2022-11-20T09:09:01;6.80;99.90
59309;DHT22;48433;53.016;-2.260;2022-11-20T09:11:36;6.90;99.90
59309;DHT22;48433;53.016;-2.260;2022-11-20T09:14:04;7.00;99.90
59309;DHT22;48433;53.016;-2.260;2022-11-20T09:16:32;7.30;99.90
59309;DHT22;48433;53.016;-2.260;2022-11-20T09:18:59;7.60;99.90
59309;DHT22;48433;53.016;-2.260;2022-11-20T09:21:47;8.00;99.90
59309;DHT22;48433;53.016;-2.260;2022-11-20T09:24:14;8.10;99.90
59309;DHT22;48433;53.016;-2.260;2022-11-20T09:26:42;8.40;99.90
59309;DHT22;48433;53.016;-2.260;2022-11-20T09:29:09;8.70;99.90
59309;DHT22;48433;53.016;-2.260;2022-11-20T09:31:37;9.50;99.90
59309;DHT22;48433;53.016;-2.260;2022-11-20T09:34:04;9.80;99.90
59309;DHT22;48433;53.016;-2.260;2022-11-20T09:36:32;10.60;99.90
59309;DHT22;48433;53.016;-2.260;2022-11-20T09:39:00;11.30;99.90
59309;DHT22;48433;53.016;-2.260;2022-11-20T09:42:20;12.40;99.90
59309;DHT22;48433;53.016;-2.260;2022-11-20T09:45:09;12.80;99.90
59309;DHT22;48433;53.016;-2.260;2022-11-20T09:56:28;14.60;99.90
59309;DHT22;48433;53.016;-2.260;2022-11-20T09:58:59;14.70;99.90
59309;DHT22;48433;53.016;-2.260;2022-11-20T10:01:32;14.80;99.90
59309;DHT22;48433;53.016;-2.260;2022-11-20T10:07:08;14.90;99.90
59309;DHT22;48433;53.016;-2.260;2022-11-20T10:09:59;15.20;99.90
59309;DHT22;48433;53.016;-2.260;2022-11-20T10:18:54;15.90;99.90
59309;DHT22;48433;53.016;-2.260;2022-11-20T10:21:29;16.10;99.90
59309;DHT22;48433;53.016;-2.260;2022-11-20T10:27:13;16.30;99.90
59309;DHT22;48433;53.016;-2.260;2022-11-20T10:29:46;16.50;99.90
59309;DHT22;48433;53.016;-2.260;2022-11-20T10:32:18;16.70;99.90
59309;DHT22;48433;53.016;-2.260;2022-11-20T10:37:55;17.30;99.90
59309;DHT22;48433;53.016;-2.260;2022-11-20T10:40:35;17.80;99.90
59309;DHT22;48433;53.016;-2.260;2022-11-20T10:43:28;17.70;99.90
59309;DHT22;48433;53.016;-2.260;2022-11-20T10:46:03;17.90;99.90
59309;DHT22;48433;53.016;-2.260;2022-11-20T10:48:32;18.10;99.90
59309;DHT22;48433;53.016;-2.260;2022-11-20T10:56:53;18.50;99.70
59309;DHT22;48433;53.016;-2.260;2022-11-20T11:02:48;19.50;97.20
59309;DHT22;48433;53.016;-2.260;2022-11-20T11:08:26;19.80;94.30
59309;DHT22;48433;53.016;-2.260;2022-11-20T11:11:02;19.90;94.10
59309;DHT22;48433;53.016;-2.260;2022-11-20T11:13:34;20.00;94.70
59309;DHT22;48433;53.016;-2.260;2022-11-20T11:16:03;20.30;94.10
59309;DHT22;48433;53.016;-2.260;2022-11-20T11:18:32;20.50;91.00
59309;DHT22;48433;53.016;-2.260;2022-11-20T11:21:02;20.40;85.20
59309;DHT22;48433;53.016;-2.260;2022-11-20T11:23:33;20.40;85.30
59309;DHT22;48433;53.016;-2.260;2022-11-20T11:26:04;20.30;84.20
59309;DHT22;48433;53.016;-2.260;2022-11-20T11:28:33;20.20;84.30
59309;DHT22;48433;53.016;-2.260;2022-11-20T11:31:01;19.70;79.60
59309;DHT22;48433;53.016;-2.260;2022-11-20T11:33:31;19.70;81.90
59309;DHT22;48433;53.016;-2.260;2022-11-20T11:36:24;19.40;83.40
59309;DHT22;48433;53.016;-2.260;2022-11-20T11:38:52;19.10;84.70
59309;DHT22;48433;53.016;-2.260;2022-11-20T11:41:24;19.10;84.10
59309;DHT22;48433;53.016;-2.260;2022-11-20T11:43:55;19.10;85.90
59309;DHT22;48433;53.016;-2.260;2022-11-20T11:46:55;18.90;82.30
59309;DHT22;48433;53.016;-2.260;2022-11-20T11:49:23;18.00;83.40
59309;DHT22;48433;53.016;-2.260;2022-11-20T11:52:00;16.40;87.40
59309;DHT22;48433;53.016;-2.260;2022-11-20T11:54:37;16.00;89.80
59309;DHT22;48433;53.016;-2.260;2022-11-20T11:57:20;15.10;92.40
59309;DHT22;48433;53.016;-2.260;2022-11-20T12:00:04;14.30;95.00
59309;DHT22;48433;53.016;-2.260;2022-11-20T12:10:54;12.40;99.90
59309;DHT22;48433;53.016;-2.260;2022-11-20T12:16:13;12.00;99.90
59309;DHT22;48433;53.016;-2.260;2022-11-20T12:18:42;11.80;99.90
59309;DHT22;48433;53.016;-2.260;2022-11-20T12:27:01;11.10;99.90
59309;DHT22;48433;53.016;-2.260;2022-11-20T12:29:48;11.10;99.90
59309;DHT22;48433;53.016;-2.260;2022-11-20T12:32:43;10.80;99.90
59309;DHT22;48433;53.016;-2.260;2022-11-20T12:41:11;10.40;99.90
59309;DHT22;48433;53.016;-2.260;2022-11-20T12:43:58;10.40;99.90
59309;DHT22;48433;53.016;-2.260;2022-11-20T12:46:50;10.30;99.90
59309;DHT22;48433;53.016;-2.260;2022-11-20T12:57:43;10.30;99.90
59309;DHT22;48433;53.016;-2.260;2022-11-20T13:00:17;10.20;99.90
59309;DHT22;48433;53.016;-2.260;2022-11-20T13:05:58;10.20;99.90
59309;DHT22;48433;53.016;-2.260;2022-11-20T13:08:33;10.10;99.90
59309;DHT22;48433;53.016;-2.260;2022-11-20T13:11:25;10.10;99.90
59309;DHT22;48433;53.016;-2.260;2022-11-20T13:19:14;10.10;99.90
59309;DHT22;48433;53.016;-2.260;2022-11-20T13:21:47;10.00;99.90
59309;DHT22;48433;53.016;-2.260;2022-11-20T13:26:47;9.90;99.90
59309;DHT22;48433;53.016;-2.260;2022-11-20T13:29:18;9.90;99.90
59309;DHT22;48433;53.016;-2.260;2022-11-20T13:31:48;9.80;99.90
59309;DHT22;48433;53.016;-2.260;2022-11-20T13:34:27;9.80;99.90
59309;DHT22;48433;53.016;-2.260;2022-11-20T13:36:56;9.80;99.90
59309;DHT22;48433;53.016;-2.260;2022-11-20T13:39:33;9.80;99.90
59309;DHT22;48433;53.016;-2.260;2022-11-20T13:42:25;9.80;99.90
59309;DHT22;48433;53.016;-2.260;2022-11-20T13:45:00;9.70;99.90
59309;DHT22;48433;53.016;-2.260;2022-11-20T13:47:29;9.70;99.90
59309;DHT22;48433;53.016;-2.260;2022-11-20T13:49:58;9.70;99.90
59309;DHT22;48433;53.016;-2.260;2022-11-20T13:55:38;9.60;99.90
59309;DHT22;48433;53.016;-2.260;2022-11-20T14:00:44;9.60;99.90
59309;DHT22;48433;53.016;-2.260;2022-11-20T14:03:21;13.20;99.90
59309;DHT22;48433;53.016;-2.260;2022-11-20T14:06:41;9.40;99.90
59309;DHT22;48433;53.016;-2.260;2022-11-20T14:09:05;9.20;99.90
59309;DHT22;48433;53.016;-2.260;2022-11-20T14:11:46;9.10;99.90
59309;DHT22;48433;53.016;-2.260;2022-11-20T14:14:17;8.90;99.90
59309;DHT22;48433;53.016;-2.260;2022-11-20T14:16:45;8.80;99.90
59309;DHT22;48433;53.016;-2.260;2022-11-20T14:22:09;8.50;99.90
59309;DHT22;48433;53.016;-2.260;2022-11-20T14:24:35;8.30;99.90
59309;DHT22;48433;53.016;-2.260;2022-11-20T14:27:03;8.20;99.90
59309;DHT22;48433;53.016;-2.260;2022-11-20T14:29:35;8.00;99.90
59309;DHT22;48433;53.016;-2.260;2022-11-20T14:32:04;8.00;99.90
59309;DHT22;48433;53.016;-2.260;2022-11-20T14:34:40;7.90;99.90
59309;DHT22;48433;53.016;-2.260;2022-11-20T14:37:17;7.90;99.90
59309;DHT22;48433;53.016;-2.260;2022-11-20T14:39:50;8.00;99.90
59309;DHT22;48433;53.016;-2.260;2022-11-20T14:42:22;7.90;99.90
59309;DHT22;48433;53.016;-2.260;2022-11-20T14:44:51;7.90;99.90
59309;DHT22;48433;53.016;-2.260;2022-11-20T14:47:26;8.00;99.90
59309;DHT22;48433;53.016;-2.260;2022-11-20T14:49:55;8.00;99.90
59309;DHT22;48433;53.016;-2.260;2022-11-20T14:52:25;8.00;99.90
59309;DHT22;48433;53.016;-2.260;2022-11-20T14:54:57;8.00;99.90
59309;DHT22;48433;53.016;-2.260;2022-11-20T14:57:34;8.00;99.90
59309;DHT22;48433;53.016;-2.260;2022-11-20T15:02:38;8.10;99.90
59309;DHT22;48433;53.016;-2.260;2022-11-20T15:05:06;8.00;99.90
59309;DHT22;48433;53.016;-2.260;2022-11-20T15:07:41;8.00;99.90
59309;DHT22;48433;53.016;-2.260;2022-11-20T15:12:51;7.90;99.90
59309;DHT22;48433;53.016;-2.260;2022-11-20T15:15:44;7.80;99.90
59309;DHT22;48433;53.016;-2.260;2022-11-20T15:18:16;7.80;99.90
59309;DHT22;48433;53.016;-2.260;2022-11-20T15:20:45;7.80;99.90
59309;DHT22;48433;53.016;-2.260;2022-11-20T15:23:14;7.70;99.90
59309;DHT22;48433;53.016;-2.260;2022-11-20T15:25:43;7.70;99.90
59309;DHT22;48433;53.016;-2.260;2022-11-20T15:28:16;7.70;99.90
59309;DHT22;48433;53.016;-2.260;2022-11-20T15:33:14;8.50;99.90
59309;DHT22;48433;53.016;-2.260;2022-11-20T15:35:42;9.00;99.90
59309;DHT22;48433;53.016;-2.260;2022-11-20T15:38:10;9.30;99.90
59309;DHT22;48433;53.016;-2.260;2022-11-20T15:40:37;9.20;99.90
59309;DHT22;48433;53.016;-2.260;2022-11-20T15:43:06;9.20;99.90
59309;DHT22;48433;53.016;-2.260;2022-11-20T15:48:12;8.90;99.90
59309;DHT22;48433;53.016;-2.260;2022-11-20T15:53:19;8.80;99.90
59309;DHT22;48433;53.016;-2.260;2022-11-20T15:55:47;8.70;99.90
59309;DHT22;48433;53.016;-2.260;2022-11-20T15:58:14;8.60;99.90
59309;DHT22;48433;53.016;-2.260;2022-11-20T16:00:44;8.50;99.90
59309;DHT22;48433;53.016;-2.260;2022-11-20T16:03:13;8.20;99.90
59309;DHT22;48433;53.016;-2.260;2022-11-20T16:05:42;8.20;99.90
59309;DHT22;48433;53.016;-2.260;2022-11-20T16:08:09;7.90;99.90
59309;DHT22;48433;53.016;-2.260;2022-11-20T16:10:38;7.90;99.90
59309;DHT22;48433;53.016;-2.260;2022-11-20T16:13:17;7.50;99.90
59309;DHT22;48433;53.016;-2.260;2022-11-20T16:16:06;7.50;99.90
59309;DHT22;48433;53.016;-2.260;2022-11-20T16:18:36;7.40;99.90
59309;DHT22;48433;53.016;-2.260;2022-11-20T16:21:03;7.10;99.90
59309;DHT22;48433;53.016;-2.260;2022-11-20T16:23:31;7.00;99.90
59309;DHT22;48433;53.016;-2.260;2022-11-20T16:26:09;6.90;99.90
59309;DHT22;48433;53.016;-2.260;2022-11-20T16:28:36;6.70;99.90
59309;DHT22;48433;53.016;-2.260;2022-11-20T16:31:09;6.50;99.90
59309;DHT22;48433;53.016;-2.260;2022-11-20T16:33:36;6.40;99.90
59309;DHT22;48433;53.016;-2.260;2022-11-20T16:36:14;6.40;99.90
59309;DHT22;48433;53.016;-2.260;2022-11-20T16:38:42;6.30;99.90
59309;DHT22;48433;53.016;-2.260;2022-11-20T16:41:10;6.20;99.90
59309;DHT22;48433;53.016;-2.260;2022-11-20T16:43:51;6.10;99.90
59309;DHT22;48433;53.016;-2.260;2022-11-20T16:46:21;6.10;99.90
59309;DHT22;48433;53.016;-2.260;2022-11-20T16:48:54;6.00;99.90
59309;DHT22;48433;53.016;-2.260;2022-11-20T16:51:23;5.90;99.90
59309;DHT22;48433;53.016;-2.260;2022-11-20T16:53:51;5.90;99.90
59309;DHT22;48433;53.016;-2.260;2022-11-20T16:56:21;5.90;99.90
59309;DHT22;48433;53.016;-2.260;2022-11-20T16:58:50;5.90;99.90
59309;DHT22;48433;53.016;-2.260;2022-11-20T17:01:19;5.80;99.90
59309;DHT22;48433;53.016;-2.260;2022-11-20T17:03:55;5.80;99.90
59309;DHT22;48433;53.016;-2.260;2022-11-20T17:06:29;5.80;99.90
59309;DHT22;48433;53.016;-2.260;2022-11-20T17:08:58;5.80;99.90
59309;DHT22;48433;53.016;-2.260;2022-11-20T17:11:26;5.70;99.90
59309;DHT22;48433;53.016;-2.260;2022-11-20T17:13:55;5.70;99.90
59309;DHT22;48433;53.016;-2.260;2022-11-20T17:16:23;5.70;99.90
59309;DHT22;48433;53.016;-2.260;2022-11-20T17:18:54;5.70;99.90
59309;DHT22;48433;53.016;-2.260;2022-11-20T17:21:29;5.60;99.90
59309;DHT22;48433;53.016;-2.260;2022-11-20T17:24:00;5.60;99.90
59309;DHT22;48433;53.016;-2.260;2022-11-20T17:26:31;5.60;99.90
59309;DHT22;48433;53.016;-2.260;2022-11-20T17:29:01;5.60;99.90
59309;DHT22;48433;53.016;-2.260;2022-11-20T17:31:31;5.60;99.90
59309;DHT22;48433;53.016;-2.260;2022-11-20T17:34:00;5.60;99.90
59309;DHT22;48433;53.016;-2.260;2022-11-20T17:36:28;5.50;99.90